sensor_id;sensor_type;location;lat;lon;timestamp;temperature;humidity
74901;DHT22;63461;51.416;6.758;2023-02-15T00:01:35;5.40;99.90
74901;DHT22;63461;51.416;6.758;2023-02-15T00:04:02;5.30;99.90
74901;DHT22;63461;51.416;6.758;2023-02-15T00:06:27;5.30;99.90
74901;DHT22;63461;51.416;6.758;2023-02-15T00:08:54;5.30;99.90
74901;DHT22;63461;51.416;6.758;2023-02-15T00:11:20;5.30;99.90
74901;DHT22;63461;51.416;6.758;2023-02-15T00:16:32;5.30;99.90
74901;DHT22;63461;51.416;6.758;2023-02-15T00:18:57;5.20;99.90
74901;DHT22;63461;51.416;6.758;2023-02-15T00:21:30;5.30;99.90
74901;DHT22;63461;51.416;6.758;2023-02-15T00:24:01;5.20;99.90
74901;DHT22;63461;51.416;6.758;2023-02-15T00:26:27;5.20;99.90
74901;DHT22;63461;51.416;6.758;2023-02-15T00:28:54;5.10;99.90
74901;DHT22;63461;51.416;6.758;2023-02-15T00:31:20;5.10;99.90
74901;DHT22;63461;51.416;6.758;2023-02-15T00:33:46;5.10;99.90
74901;DHT22;63461;51.416;6.758;2023-02-15T00:36:13;5.10;99.90
74901;DHT22;63461;51.416;6.758;2023-02-15T00:38:39;5.10;99.90
74901;DHT22;63461;51.416;6.758;2023-02-15T00:41:06;5.10;99.90
74901;DHT22;63461;51.416;6.758;2023-02-15T00:43:33;5.10;99.90
74901;DHT22;63461;51.416;6.758;2023-02-15T00:46:01;5.10;99.90
74901;DHT22;63461;51.416;6.758;2023-02-15T00:48:27;5.10;99.90
74901;DHT22;63461;51.416;6.758;2023-02-15T00:50:55;5.00;99.90
74901;DHT22;63461;51.416;6.758;2023-02-15T00:53:22;5.10;99.90
74901;DHT22;63461;51.416;6.758;2023-02-15T00:55:48;5.00;99.90
74901;DHT22;63461;51.416;6.758;2023-02-15T00:58:14;5.00;99.90
74901;DHT22;63461;51.416;6.758;2023-02-15T01:00:43;5.00;99.90
74901;DHT22;63461;51.416;6.758;2023-02-15T01:03:09;5.00;99.90
74901;DHT22;63461;51.416;6.758;2023-02-15T01:05:35;5.00;99.90
74901;DHT22;63461;51.416;6.758;2023-02-15T01:08:03;5.00;99.90
74901;DHT22;63461;51.416;6.758;2023-02-15T01:10:30;5.00;99.90
74901;DHT22;63461;51.416;6.758;2023-02-15T01:12:56;4.90;99.90
74901;DHT22;63461;51.416;6.758;2023-02-15T01:15:31;4.90;99.90
74901;DHT22;63461;51.416;6.758;2023-02-15T01:17:59;4.90;99.90
74901;DHT22;63461;51.416;6.758;2023-02-15T01:20:26;4.90;99.90
74901;DHT22;63461;51.416;6.758;2023-02-15T01:22:53;4.90;99.90
74901;DHT22;63461;51.416;6.758;2023-02-15T01:25:20;4.80;99.90
74901;DHT22;63461;51.416;6.758;2023-02-15T01:27:47;4.80;99.90
74901;DHT22;63461;51.416;6.758;2023-02-15T01:30:14;4.80;99.90
74901;DHT22;63461;51.416;6.758;2023-02-15T01:32:40;4.80;99.90
74901;DHT22;63461;51.416;6.758;2023-02-15T01:35:08;4.80;99.90
74901;DHT22;63461;51.416;6.758;2023-02-15T01:37:34;4.80;99.90
74901;DHT22;63461;51.416;6.758;2023-02-15T01:40:01;4.80;99.90
74901;DHT22;63461;51.416;6.758;2023-02-15T01:42:28;4.80;99.90
74901;DHT22;63461;51.416;6.758;2023-02-15T01:44:57;4.80;99.90
74901;DHT22;63461;51.416;6.758;2023-02-15T01:47:35;4.70;99.90
74901;DHT22;63461;51.416;6.758;2023-02-15T01:50:33;4.70;99.90
74901;DHT22;63461;51.416;6.758;2023-02-15T01:53:24;4.70;99.90
74901;DHT22;63461;51.416;6.758;2023-02-15T01:56:18;4.70;99.90
74901;DHT22;63461;51.416;6.758;2023-02-15T01:58:49;4.70;99.90
74901;DHT22;63461;51.416;6.758;2023-02-15T02:01:17;4.70;99.90
74901;DHT22;63461;51.416;6.758;2023-02-15T02:03:46;4.70;99.90
74901;DHT22;63461;51.416;6.758;2023-02-15T02:06:15;4.70;99.90
74901;DHT22;63461;51.416;6.758;2023-02-15T02:08:42;4.60;99.90
74901;DHT22;63461;51.416;6.758;2023-02-15T02:11:12;4.60;99.90
74901;DHT22;63461;51.416;6.758;2023-02-15T02:13:43;4.60;99.90
74901;DHT22;63461;51.416;6.758;2023-02-15T02:16:33;4.60;99.90
74901;DHT22;63461;51.416;6.758;2023-02-15T02:24:40;4.50;99.90
74901;DHT22;63461;51.416;6.758;2023-02-15T02:27:25;4.50;99.90
74901;DHT22;63461;51.416;6.758;2023-02-15T02:30:14;4.50;99.90
74901;DHT22;63461;51.416;6.758;2023-02-15T02:38:23;4.50;99.90
74901;DHT22;63461;51.416;6.758;2023-02-15T02:43:28;4.50;99.90
74901;DHT22;63461;51.416;6.758;2023-02-15T02:46:07;4.40;99.90
74901;DHT22;63461;51.416;6.758;2023-02-15T02:48:34;4.40;99.90
74901;DHT22;63461;51.416;6.758;2023-02-15T02:51:00;4.40;99.90
74901;DHT22;63461;51.416;6.758;2023-02-15T02:53:28;4.40;99.90
74901;DHT22;63461;51.416;6.758;2023-02-15T02:55:58;4.40;99.90
74901;DHT22;63461;51.416;6.758;2023-02-15T02:58:34;4.40;99.90
74901;DHT22;63461;51.416;6.758;2023-02-15T03:03:44;4.30;99.90
74901;DHT22;63461;51.416;6.758;2023-02-15T03:06:29;4.30;99.90
74901;DHT22;63461;51.416;6.758;2023-02-15T03:09:16;4.30;99.90
74901;DHT22;63461;51.416;6.758;2023-02-15T03:11:44;4.30;99.90
74901;DHT22;63461;51.416;6.758;2023-02-15T03:14:10;4.30;99.90
74901;DHT22;63461;51.416;6.758;2023-02-15T03:16:38;4.30;99.90
74901;DHT22;63461;51.416;6.758;2023-02-15T03:19:25;4.30;99.90
74901;DHT22;63461;51.416;6.758;2023-02-15T03:21:56;4.30;99.90
74901;DHT22;63461;51.416;6.758;2023-02-15T03:24:37;4.30;99.90
74901;DHT22;63461;51.416;6.758;2023-02-15T03:27:11;4.30;99.90
74901;DHT22;63461;51.416;6.758;2023-02-15T03:29:45;4.30;99.90
74901;DHT22;63461;51.416;6.758;2023-02-15T03:32:12;4.20;99.90
74901;DHT22;63461;51.416;6.758;2023-02-15T03:34:40;4.30;99.90
74901;DHT22;63461;51.416;6.758;2023-02-15T03:37:26;4.20;99.90
74901;DHT22;63461;51.416;6.758;2023-02-15T03:40:07;4.20;99.90
74901;DHT22;63461;51.416;6.758;2023-02-15T03:43:00;4.20;99.90
74901;DHT22;63461;51.416;6.758;2023-02-15T03:45:31;4.20;99.90
74901;DHT22;63461;51.416;6.758;2023-02-15T03:48:00;4.20;99.90
74901;DHT22;63461;51.416;6.758;2023-02-15T03:50:29;4.20;99.90
74901;DHT22;63461;51.416;6.758;2023-02-15T03:53:16;4.20;99.90
74901;DHT22;63461;51.416;6.758;2023-02-15T03:55:52;4.20;99.90
74901;DHT22;63461;51.416;6.758;2023-02-15T03:58:18;4.20;99.90
74901;DHT22;63461;51.416;6.758;2023-02-15T04:01:47;4.10;99.90
74901;DHT22;63461;51.416;6.758;2023-02-15T04:06:59;4.10;99.90
74901;DHT22;63461;51.416;6.758;2023-02-15T04:09:25;4.10;99.90
74901;DHT22;63461;51.416;6.758;2023-02-15T04:12:10;4.10;99.90
74901;DHT22;63461;51.416;6.758;2023-02-15T04:14:35;4.10;99.90
74901;DHT22;63461;51.416;6.758;2023-02-15T04:17:20;4.10;99.90
74901;DHT22;63461;51.416;6.758;2023-02-15T04:19:45;4.10;99.90
74901;DHT22;63461;51.416;6.758;2023-02-15T04:22:30;4.10;99.90
74901;DHT22;63461;51.416;6.758;2023-02-15T04:25:14;4.00;99.90
74901;DHT22;63461;51.416;6.758;2023-02-15T04:27:47;4.10;99.90
74901;DHT22;63461;51.416;6.758;2023-02-15T04:30:14;4.10;99.90
74901;DHT22;63461;51.416;6.758;2023-02-15T04:32:40;4.00;99.90
74901;DHT22;63461;51.416;6.758;2023-02-15T04:35:06;4.00;99.90
74901;DHT22;63461;51.416;6.758;2023-02-15T04:37:32;4.00;99.90
74901;DHT22;63461;51.416;6.758;2023-02-15T04:39:58;4.00;99.90
74901;DHT22;63461;51.416;6.758;2023-02-15T04:42:25;4.00;99.90
74901;DHT22;63461;51.416;6.758;2023-02-15T04:44:51;4.00;99.90
74901;DHT22;63461;51.416;6.758;2023-02-15T04:47:17;4.00;99.90
74901;DHT22;63461;51.416;6.758;2023-02-15T04:49:43;3.90;99.90
74901;DHT22;63461;51.416;6.758;2023-02-15T04:52:09;3.90;99.90
74901;DHT22;63461;51.416;6.758;2023-02-15T04:54:35;4.00;99.90
74901;DHT22;63461;51.416;6.758;2023-02-15T04:57:01;3.90;99.90
74901;DHT22;63461;51.416;6.758;2023-02-15T04:59:27;3.90;99.90
74901;DHT22;63461;51.416;6.758;2023-02-15T05:01:52;3.90;99.90
74901;DHT22;63461;51.416;6.758;2023-02-15T05:04:18;3.90;99.90
74901;DHT22;63461;51.416;6.758;2023-02-15T05:06:44;3.80;99.90
74901;DHT22;63461;51.416;6.758;2023-02-15T05:09:14;3.90;99.90
74901;DHT22;63461;51.416;6.758;2023-02-15T05:11:40;3.90;99.90
74901;DHT22;63461;51.416;6.758;2023-02-15T05:14:06;3.90;99.90
74901;DHT22;63461;51.416;6.758;2023-02-15T05:16:32;3.80;99.90
74901;DHT22;63461;51.416;6.758;2023-02-15T05:18:58;3.80;99.90
74901;DHT22;63461;51.416;6.758;2023-02-15T05:21:24;3.80;99.90
74901;DHT22;63461;51.416;6.758;2023-02-15T05:23:49;3.80;99.90
74901;DHT22;63461;51.416;6.758;2023-02-15T05:26:20;3.80;99.90
74901;DHT22;63461;51.416;6.758;2023-02-15T05:29:06;3.70;99.90
74901;DHT22;63461;51.416;6.758;2023-02-15T05:31:33;3.80;99.90
74901;DHT22;63461;51.416;6.758;2023-02-15T05:33:58;3.80;99.90
74901;DHT22;63461;51.416;6.758;2023-02-15T05:36:24;3.80;99.90
74901;DHT22;63461;51.416;6.758;2023-02-15T05:38:50;3.70;99.90
74901;DHT22;63461;51.416;6.758;2023-02-15T05:41:16;3.70;99.90
74901;DHT22;63461;51.416;6.758;2023-02-15T05:43:42;3.80;99.90
74901;DHT22;63461;51.416;6.758;2023-02-15T05:46:08;3.70;99.90
74901;DHT22;63461;51.416;6.758;2023-02-15T05:48:36;3.70;99.90
74901;DHT22;63461;51.416;6.758;2023-02-15T05:51:10;3.70;99.90
74901;DHT22;63461;51.416;6.758;2023-02-15T05:53:38;3.70;99.90
74901;DHT22;63461;51.416;6.758;2023-02-15T05:56:06;3.70;99.90
74901;DHT22;63461;51.416;6.758;2023-02-15T05:58:35;3.70;99.90
74901;DHT22;63461;51.416;6.758;2023-02-15T06:01:11;3.70;99.90
74901;DHT22;63461;51.416;6.758;2023-02-15T06:03:38;3.60;99.90
74901;DHT22;63461;51.416;6.758;2023-02-15T06:06:04;3.70;99.90
74901;DHT22;63461;51.416;6.758;2023-02-15T06:08:33;3.70;99.90
74901;DHT22;63461;51.416;6.758;2023-02-15T06:11:00;3.70;99.90
74901;DHT22;63461;51.416;6.758;2023-02-15T06:13:26;3.60;99.90
74901;DHT22;63461;51.416;6.758;2023-02-15T06:15:52;3.60;99.90
74901;DHT22;63461;51.416;6.758;2023-02-15T06:18:18;3.70;99.90
74901;DHT22;63461;51.416;6.758;2023-02-15T06:20:47;3.60;99.90
74901;DHT22;63461;51.416;6.758;2023-02-15T06:23:14;3.60;99.90
74901;DHT22;63461;51.416;6.758;2023-02-15T06:25:39;3.60;99.90
74901;DHT22;63461;51.416;6.758;2023-02-15T06:28:05;3.60;99.90
74901;DHT22;63461;51.416;6.758;2023-02-15T06:30:31;3.60;99.90
74901;DHT22;63461;51.416;6.758;2023-02-15T06:32:57;3.60;99.90
74901;DHT22;63461;51.416;6.758;2023-02-15T06:35:23;3.60;99.90
74901;DHT22;63461;51.416;6.758;2023-02-15T06:37:49;3.60;99.90
74901;DHT22;63461;51.416;6.758;2023-02-15T06:40:15;3.60;99.90
74901;DHT22;63461;51.416;6.758;2023-02-15T06:42:41;3.60;99.90
74901;DHT22;63461;51.416;6.758;2023-02-15T06:45:08;3.50;99.90
74901;DHT22;63461;51.416;6.758;2023-02-15T06:47:34;3.50;99.90
74901;DHT22;63461;51.416;6.758;2023-02-15T06:50:01;3.60;99.90
74901;DHT22;63461;51.416;6.758;2023-02-15T06:52:27;3.60;99.90
74901;DHT22;63461;51.416;6.758;2023-02-15T06:54:53;3.50;99.90
74901;DHT22;63461;51.416;6.758;2023-02-15T06:57:19;3.60;99.90
74901;DHT22;63461;51.416;6.758;2023-02-15T06:59:45;3.60;99.90
74901;DHT22;63461;51.416;6.758;2023-02-15T07:02:11;3.60;99.90
74901;DHT22;63461;51.416;6.758;2023-02-15T07:04:37;3.60;99.90
74901;DHT22;63461;51.416;6.758;2023-02-15T07:07:03;3.60;99.90
74901;DHT22;63461;51.416;6.758;2023-02-15T07:09:29;3.60;99.90
74901;DHT22;63461;51.416;6.758;2023-02-15T07:11:55;3.70;99.90
74901;DHT22;63461;51.416;6.758;2023-02-15T07:14:39;3.70;99.90
74901;DHT22;63461;51.416;6.758;2023-02-15T07:17:06;3.70;99.90
74901;DHT22;63461;51.416;6.758;2023-02-15T07:19:32;3.70;99.90
74901;DHT22;63461;51.416;6.758;2023-02-15T07:21:58;3.70;99.90
74901;DHT22;63461;51.416;6.758;2023-02-15T07:24:23;3.70;99.90
74901;DHT22;63461;51.416;6.758;2023-02-15T07:26:49;3.70;99.90
74901;DHT22;63461;51.416;6.758;2023-02-15T07:29:15;3.70;99.90
74901;DHT22;63461;51.416;6.758;2023-02-15T07:31:41;3.80;99.90
74901;DHT22;63461;51.416;6.758;2023-02-15T07:34:10;3.80;99.90
74901;DHT22;63461;51.416;6.758;2023-02-15T07:36:36;3.80;99.90
74901;DHT22;63461;51.416;6.758;2023-02-15T07:39:02;3.90;99.90
74901;DHT22;63461;51.416;6.758;2023-02-15T07:41:28;3.90;99.90
74901;DHT22;63461;51.416;6.758;2023-02-15T07:43:54;3.90;99.90
74901;DHT22;63461;51.416;6.758;2023-02-15T07:46:21;3.90;99.90
74901;DHT22;63461;51.416;6.758;2023-02-15T07:48:48;3.90;99.90
74901;DHT22;63461;51.416;6.758;2023-02-15T07:51:14;4.00;99.90
74901;DHT22;63461;51.416;6.758;2023-02-15T07:53:41;4.00;99.90
74901;DHT22;63461;51.416;6.758;2023-02-15T07:56:11;4.00;99.90
74901;DHT22;63461;51.416;6.758;2023-02-15T07:58:37;4.00;99.90
74901;DHT22;63461;51.416;6.758;2023-02-15T08:01:22;4.00;99.90
74901;DHT22;63461;51.416;6.758;2023-02-15T08:03:48;4.10;99.90
74901;DHT22;63461;51.416;6.758;2023-02-15T08:06:14;4.10;99.90
74901;DHT22;63461;51.416;6.758;2023-02-15T08:08:41;4.10;99.90
74901;DHT22;63461;51.416;6.758;2023-02-15T08:11:15;4.10;99.90
74901;DHT22;63461;51.416;6.758;2023-02-15T08:14:17;4.20;99.90
74901;DHT22;63461;51.416;6.758;2023-02-15T08:16:46;4.20;99.90
74901;DHT22;63461;51.416;6.758;2023-02-15T08:19:29;4.30;99.90
74901;DHT22;63461;51.416;6.758;2023-02-15T08:22:06;4.30;99.90
74901;DHT22;63461;51.416;6.758;2023-02-15T08:24:34;4.30;99.90
74901;DHT22;63461;51.416;6.758;2023-02-15T08:27:02;4.40;99.90
74901;DHT22;63461;51.416;6.758;2023-02-15T08:29:30;4.40;99.90
74901;DHT22;63461;51.416;6.758;2023-02-15T08:32:07;4.40;99.90
74901;DHT22;63461;51.416;6.758;2023-02-15T08:34:40;4.50;99.90
74901;DHT22;63461;51.416;6.758;2023-02-15T08:37:06;4.50;99.90
74901;DHT22;63461;51.416;6.758;2023-02-15T08:39:32;4.50;99.90
74901;DHT22;63461;51.416;6.758;2023-02-15T08:41:58;4.60;99.90
74901;DHT22;63461;51.416;6.758;2023-02-15T08:44:24;4.60;99.90
74901;DHT22;63461;51.416;6.758;2023-02-15T08:46:49;4.60;99.90
74901;DHT22;63461;51.416;6.758;2023-02-15T08:49:19;4.70;99.90
74901;DHT22;63461;51.416;6.758;2023-02-15T08:51:45;4.70;99.90
74901;DHT22;63461;51.416;6.758;2023-02-15T08:54:14;4.70;99.90
74901;DHT22;63461;51.416;6.758;2023-02-15T08:56:42;4.80;99.90
74901;DHT22;63461;51.416;6.758;2023-02-15T08:59:14;4.80;99.90
74901;DHT22;63461;51.416;6.758;2023-02-15T09:01:40;4.90;99.90
74901;DHT22;63461;51.416;6.758;2023-02-15T09:04:07;4.90;99.90
74901;DHT22;63461;51.416;6.758;2023-02-15T09:06:42;5.00;99.90
74901;DHT22;63461;51.416;6.758;2023-02-15T09:09:10;5.00;99.90
74901;DHT22;63461;51.416;6.758;2023-02-15T09:11:39;5.10;99.90
74901;DHT22;63461;51.416;6.758;2023-02-15T09:14:08;5.10;99.90
74901;DHT22;63461;51.416;6.758;2023-02-15T09:16:36;5.20;99.90
74901;DHT22;63461;51.416;6.758;2023-02-15T09:19:03;5.20;99.90
74901;DHT22;63461;51.416;6.758;2023-02-15T09:21:31;5.30;99.90
74901;DHT22;63461;51.416;6.758;2023-02-15T09:24:02;5.30;99.90
74901;DHT22;63461;51.416;6.758;2023-02-15T09:26:30;5.30;99.90
74901;DHT22;63461;51.416;6.758;2023-02-15T09:28:59;5.40;99.90
74901;DHT22;63461;51.416;6.758;2023-02-15T09:31:28;5.40;99.90
74901;DHT22;63461;51.416;6.758;2023-02-15T09:33:55;5.50;99.90
74901;DHT22;63461;51.416;6.758;2023-02-15T09:36:35;5.60;99.90
74901;DHT22;63461;51.416;6.758;2023-02-15T09:53:19;5.90;99.90
74901;DHT22;63461;51.416;6.758;2023-02-15T10:09:27;6.30;99.90
74901;DHT22;63461;51.416;6.758;2023-02-15T10:14:43;6.40;99.90
74901;DHT22;63461;51.416;6.758;2023-02-15T10:20:14;6.50;99.90
74901;DHT22;63461;51.416;6.758;2023-02-15T10:25:51;6.70;99.90
74901;DHT22;63461;51.416;6.758;2023-02-15T10:28:41;6.80;99.90
74901;DHT22;63461;51.416;6.758;2023-02-15T10:33:50;6.80;99.90
74901;DHT22;63461;51.416;6.758;2023-02-15T10:42:20;7.00;99.90
74901;DHT22;63461;51.416;6.758;2023-02-15T10:45:06;7.10;99.90
74901;DHT22;63461;51.416;6.758;2023-02-15T10:50:34;7.20;99.90
74901;DHT22;63461;51.416;6.758;2023-02-15T10:53:20;7.20;99.90
74901;DHT22;63461;51.416;6.758;2023-02-15T11:04:26;7.40;99.90
74901;DHT22;63461;51.416;6.758;2023-02-15T11:07:02;7.40;99.90
74901;DHT22;63461;51.416;6.758;2023-02-15T11:09:42;7.40;99.90
74901;DHT22;63461;51.416;6.758;2023-02-15T11:12:13;7.50;99.90
74901;DHT22;63461;51.416;6.758;2023-02-15T11:14:46;7.60;99.90
74901;DHT22;63461;51.416;6.758;2023-02-15T11:17:17;7.70;99.90
74901;DHT22;63461;51.416;6.758;2023-02-15T11:20:25;7.70;99.90
74901;DHT22;63461;51.416;6.758;2023-02-15T11:22:51;7.80;99.90
74901;DHT22;63461;51.416;6.758;2023-02-15T11:25:23;7.80;99.90
74901;DHT22;63461;51.416;6.758;2023-02-15T11:27:50;7.80;99.90
74901;DHT22;63461;51.416;6.758;2023-02-15T11:30:27;7.80;99.90
74901;DHT22;63461;51.416;6.758;2023-02-15T11:32:57;7.90;99.90
74901;DHT22;63461;51.416;6.758;2023-02-15T11:35:31;7.90;99.90
74901;DHT22;63461;51.416;6.758;2023-02-15T11:38:10;7.80;99.90
74901;DHT22;63461;51.416;6.758;2023-02-15T11:40:48;7.90;99.90
74901;DHT22;63461;51.416;6.758;2023-02-15T11:43:26;8.00;99.90
74901;DHT22;63461;51.416;6.758;2023-02-15T11:45:55;8.10;99.90
74901;DHT22;63461;51.416;6.758;2023-02-15T11:48:20;8.10;99.90
74901;DHT22;63461;51.416;6.758;2023-02-15T11:50:46;8.10;99.90
74901;DHT22;63461;51.416;6.758;2023-02-15T11:53:18;8.10;99.90
74901;DHT22;63461;51.416;6.758;2023-02-15T11:55:48;8.20;99.90
74901;DHT22;63461;51.416;6.758;2023-02-15T11:58:25;8.20;99.90
74901;DHT22;63461;51.416;6.758;2023-02-15T12:01:19;8.20;99.90
74901;DHT22;63461;51.416;6.758;2023-02-15T12:03:46;8.20;99.90
74901;DHT22;63461;51.416;6.758;2023-02-15T12:06:18;8.30;99.90
74901;DHT22;63461;51.416;6.758;2023-02-15T12:11:41;8.40;99.90
74901;DHT22;63461;51.416;6.758;2023-02-15T12:14:09;8.40;99.90
74901;DHT22;63461;51.416;6.758;2023-02-15T12:16:45;8.30;99.90
74901;DHT22;63461;51.416;6.758;2023-02-15T12:19:31;8.30;99.90
74901;DHT22;63461;51.416;6.758;2023-02-15T12:22:00;8.40;99.90
74901;DHT22;63461;51.416;6.758;2023-02-15T12:24:30;8.40;99.90
74901;DHT22;63461;51.416;6.758;2023-02-15T12:27:15;8.50;99.90
74901;DHT22;63461;51.416;6.758;2023-02-15T12:29:51;8.60;99.90
74901;DHT22;63461;51.416;6.758;2023-02-15T12:32:30;8.60;99.90
74901;DHT22;63461;51.416;6.758;2023-02-15T12:35:07;8.60;99.90
74901;DHT22;63461;51.416;6.758;2023-02-15T12:37:34;8.70;99.90
74901;DHT22;63461;51.416;6.758;2023-02-15T12:40:02;8.90;99.90
74901;DHT22;63461;51.416;6.758;2023-02-15T12:42:46;8.80;99.90
74901;DHT22;63461;51.416;6.758;2023-02-15T12:45:24;8.80;99.90
74901;DHT22;63461;51.416;6.758;2023-02-15T12:50:50;9.00;99.90
74901;DHT22;63461;51.416;6.758;2023-02-15T12:53:33;9.20;99.90
74901;DHT22;63461;51.416;6.758;2023-02-15T12:56:04;9.10;99.90
74901;DHT22;63461;51.416;6.758;2023-02-15T12:58:35;9.20;99.90
74901;DHT22;63461;51.416;6.758;2023-02-15T13:01:16;9.20;99.90
74901;DHT22;63461;51.416;6.758;2023-02-15T13:04:03;9.10;99.90
74901;DHT22;63461;51.416;6.758;2023-02-15T13:06:35;9.10;99.90
74901;DHT22;63461;51.416;6.758;2023-02-15T13:12:14;9.30;99.90
74901;DHT22;63461;51.416;6.758;2023-02-15T13:14:44;9.40;99.90
74901;DHT22;63461;51.416;6.758;2023-02-15T13:17:12;9.30;99.90
74901;DHT22;63461;51.416;6.758;2023-02-15T13:19:46;9.40;99.90
74901;DHT22;63461;51.416;6.758;2023-02-15T13:25:03;9.20;99.90
74901;DHT22;63461;51.416;6.758;2023-02-15T13:27:38;9.20;99.90
74901;DHT22;63461;51.416;6.758;2023-02-15T13:30:35;9.20;99.90
74901;DHT22;63461;51.416;6.758;2023-02-15T13:38:42;9.50;99.90
74901;DHT22;63461;51.416;6.758;2023-02-15T13:41:18;9.50;99.90
74901;DHT22;63461;51.416;6.758;2023-02-15T13:52:29;9.50;99.90
74901;DHT22;63461;51.416;6.758;2023-02-15T13:55:26;9.80;99.90
74901;DHT22;63461;51.416;6.758;2023-02-15T14:19:52;10.10;99.90
74901;DHT22;63461;51.416;6.758;2023-02-15T14:28:02;10.30;99.90
74901;DHT22;63461;51.416;6.758;2023-02-15T14:30:37;10.20;99.90
74901;DHT22;63461;51.416;6.758;2023-02-15T14:35:39;10.10;99.90
74901;DHT22;63461;51.416;6.758;2023-02-15T14:43:56;10.00;99.90
74901;DHT22;63461;51.416;6.758;2023-02-15T14:46:39;10.00;99.90
74901;DHT22;63461;51.416;6.758;2023-02-15T14:49:25;10.00;99.90
74901;DHT22;63461;51.416;6.758;2023-02-15T14:51:57;9.90;99.90
74901;DHT22;63461;51.416;6.758;2023-02-15T15:02:20;10.10;99.90
74901;DHT22;63461;51.416;6.758;2023-02-15T15:05:02;10.00;99.90
74901;DHT22;63461;51.416;6.758;2023-02-15T15:07:45;10.20;99.90
74901;DHT22;63461;51.416;6.758;2023-02-15T15:12:44;10.20;99.90
74901;DHT22;63461;51.416;6.758;2023-02-15T15:18:10;10.20;99.90
74901;DHT22;63461;51.416;6.758;2023-02-15T15:20:55;10.30;99.90
74901;DHT22;63461;51.416;6.758;2023-02-15T15:25:52;10.40;99.90
74901;DHT22;63461;51.416;6.758;2023-02-15T15:31:17;10.30;99.90
74901;DHT22;63461;51.416;6.758;2023-02-15T15:42:38;10.30;99.90
74901;DHT22;63461;51.416;6.758;2023-02-15T15:48:27;10.30;99.90
74901;DHT22;63461;51.416;6.758;2023-02-15T15:50:57;10.10;99.90
74901;DHT22;63461;51.416;6.758;2023-02-15T15:53:27;10.10;99.90
74901;DHT22;63461;51.416;6.758;2023-02-15T15:56:04;10.00;99.90
74901;DHT22;63461;51.416;6.758;2023-02-15T15:58:31;10.00;99.90
74901;DHT22;63461;51.416;6.758;2023-02-15T16:01:06;10.00;99.90
74901;DHT22;63461;51.416;6.758;2023-02-15T16:03:33;10.00;99.90
74901;DHT22;63461;51.416;6.758;2023-02-15T16:05:59;10.10;99.90
74901;DHT22;63461;51.416;6.758;2023-02-15T16:10:52;9.90;99.90
74901;DHT22;63461;51.416;6.758;2023-02-15T16:13:18;9.80;99.90
74901;DHT22;63461;51.416;6.758;2023-02-15T16:15:49;9.70;99.90
74901;DHT22;63461;51.416;6.758;2023-02-15T16:18:20;9.80;99.90
74901;DHT22;63461;51.416;6.758;2023-02-15T16:20:58;9.80;99.90
74901;DHT22;63461;51.416;6.758;2023-02-15T16:26:34;9.70;99.90
74901;DHT22;63461;51.416;6.758;2023-02-15T16:29:14;9.60;99.90
74901;DHT22;63461;51.416;6.758;2023-02-15T16:31:40;9.50;99.90
74901;DHT22;63461;51.416;6.758;2023-02-15T16:34:14;9.60;99.90
74901;DHT22;63461;51.416;6.758;2023-02-15T16:36:41;9.60;99.90
74901;DHT22;63461;51.416;6.758;2023-02-15T16:39:18;9.50;99.90
74901;DHT22;63461;51.416;6.758;2023-02-15T16:41:44;9.50;99.90
74901;DHT22;63461;51.416;6.758;2023-02-15T16:44:19;9.40;99.90
74901;DHT22;63461;51.416;6.758;2023-02-15T16:46:50;9.40;99.90
74901;DHT22;63461;51.416;6.758;2023-02-15T16:49:23;9.30;99.90
74901;DHT22;63461;51.416;6.758;2023-02-15T16:54:24;9.20;99.90
74901;DHT22;63461;51.416;6.758;2023-02-15T16:56:51;9.10;99.90
74901;DHT22;63461;51.416;6.758;2023-02-15T16:59:39;9.10;99.90
74901;DHT22;63461;51.416;6.758;2023-02-15T17:02:15;9.00;99.90
74901;DHT22;63461;51.416;6.758;2023-02-15T17:04:42;9.10;99.90
74901;DHT22;63461;51.416;6.758;2023-02-15T17:07:20;9.10;99.90
74901;DHT22;63461;51.416;6.758;2023-02-15T17:09:56;9.00;99.90
74901;DHT22;63461;51.416;6.758;2023-02-15T17:12:51;8.90;99.90
74901;DHT22;63461;51.416;6.758;2023-02-15T17:18:16;8.90;99.90
74901;DHT22;63461;51.416;6.758;2023-02-15T17:20:44;8.90;99.90
74901;DHT22;63461;51.416;6.758;2023-02-15T17:23:33;8.90;99.90
74901;DHT22;63461;51.416;6.758;2023-02-15T17:26:10;8.80;99.90
74901;DHT22;63461;51.416;6.758;2023-02-15T17:28:36;8.80;99.90
74901;DHT22;63461;51.416;6.758;2023-02-15T17:31:06;8.80;99.90
74901;DHT22;63461;51.416;6.758;2023-02-15T17:36:11;8.80;99.90
74901;DHT22;63461;51.416;6.758;2023-02-15T17:38:41;8.70;99.90
74901;DHT22;63461;51.416;6.758;2023-02-15T17:41:34;8.70;99.90
74901;DHT22;63461;51.416;6.758;2023-02-15T17:44:02;8.80;99.90
74901;DHT22;63461;51.416;6.758;2023-02-15T17:46:33;8.70;99.90
74901;DHT22;63461;51.416;6.758;2023-02-15T17:49:00;8.70;99.90
74901;DHT22;63461;51.416;6.758;2023-02-15T17:51:27;8.70;99.90
74901;DHT22;63461;51.416;6.758;2023-02-15T17:53:52;8.70;99.90
74901;DHT22;63461;51.416;6.758;2023-02-15T17:56:38;8.70;99.90
74901;DHT22;63461;51.416;6.758;2023-02-15T17:59:04;8.70;99.90
74901;DHT22;63461;51.416;6.758;2023-02-15T18:01:33;8.70;99.90
74901;DHT22;63461;51.416;6.758;2023-02-15T18:04:19;8.60;99.90
74901;DHT22;63461;51.416;6.758;2023-02-15T18:07:04;8.70;99.90
74901;DHT22;63461;51.416;6.758;2023-02-15T18:09:49;8.60;99.90
74901;DHT22;63461;51.416;6.758;2023-02-15T18:12:35;8.60;99.90
74901;DHT22;63461;51.416;6.758;2023-02-15T18:15:05;8.60;99.90
74901;DHT22;63461;51.416;6.758;2023-02-15T18:17:45;8.60;99.90
74901;DHT22;63461;51.416;6.758;2023-02-15T18:20:18;8.60;99.90
74901;DHT22;63461;51.416;6.758;2023-02-15T18:22:45;8.50;99.90
74901;DHT22;63461;51.416;6.758;2023-02-15T18:25:16;8.50;99.90
74901;DHT22;63461;51.416;6.758;2023-02-15T18:27:42;8.40;99.90
74901;DHT22;63461;51.416;6.758;2023-02-15T18:30:17;8.40;99.90
74901;DHT22;63461;51.416;6.758;2023-02-15T18:32:44;8.50;99.90
74901;DHT22;63461;51.416;6.758;2023-02-15T18:35:22;8.50;99.90
74901;DHT22;63461;51.416;6.758;2023-02-15T18:37:49;8.50;99.90
74901;DHT22;63461;51.416;6.758;2023-02-15T18:40:20;8.50;99.90
74901;DHT22;63461;51.416;6.758;2023-02-15T18:42:47;8.50;99.90
74901;DHT22;63461;51.416;6.758;2023-02-15T18:45:16;8.40;99.90
74901;DHT22;63461;51.416;6.758;2023-02-15T18:47:44;8.40;99.90
74901;DHT22;63461;51.416;6.758;2023-02-15T18:50:12;8.40;99.90
74901;DHT22;63461;51.416;6.758;2023-02-15T18:52:38;8.40;99.90
74901;DHT22;63461;51.416;6.758;2023-02-15T18:55:25;8.30;99.90
74901;DHT22;63461;51.416;6.758;2023-02-15T18:57:54;8.30;99.90
74901;DHT22;63461;51.416;6.758;2023-02-15T19:00:25;8.30;99.90
74901;DHT22;63461;51.416;6.758;2023-02-15T19:02:53;8.30;99.90
74901;DHT22;63461;51.416;6.758;2023-02-15T19:05:19;8.20;99.90
74901;DHT22;63461;51.416;6.758;2023-02-15T19:07:46;8.20;99.90
74901;DHT22;63461;51.416;6.758;2023-02-15T19:10:19;8.20;99.90
74901;DHT22;63461;51.416;6.758;2023-02-15T19:12:47;8.20;99.90
74901;DHT22;63461;51.416;6.758;2023-02-15T19:15:21;8.10;99.90
74901;DHT22;63461;51.416;6.758;2023-02-15T19:17:47;8.10;99.90